Time;durP1;ratioP1;P1;durP2;ratioP2;P2;SDS_P1;SDS_P2;PMS_P1;PMS_P2;Temp;Humidity;BMP_temperature;BMP_pressure;BME280_temperature;BME280_humidity;BME280_pressure;Samples;Min_cycle;Max_cycle;Signal;HPM_P1;HPM_P2
2021/11/08 00:01:59;;;;;;;;;;;8.60;77.90;;;;;;5010654;28;20004;-68
2021/11/08 00:04:25;;;;;;;;;;;8.50;78.00;;;;;;5009698;28;19921;-68
2021/11/08 00:06:51;;;;;;;;;;;8.50;78.10;;;;;;5013506;28;20411;-68
2021/11/08 00:09:18;;;;;;;;;;;8.50;78.20;;;;;;5015565;28;19980;-68
2021/11/08 00:11:44;;;;;;;;;;;8.50;78.40;;;;;;5012280;28;20442;-68
2021/11/08 00:14:12;;;;;;;;;;;8.50;78.40;;;;;;5010781;28;19921;-67
2021/11/08 00:16:46;;;;;;;;;;;8.50;78.50;;;;;;5008983;28;19921;-67
2021/11/08 00:21:58;;;;;;;;;;;8.50;78.50;;;;;;5012285;28;19917;-68
2021/11/08 00:24:25;;;;;;;;;;;8.60;78.60;;;;;;5009457;28;19914;-68
2021/11/08 00:26:51;;;;;;;;;;;8.60;78.60;;;;;;5012770;28;19917;-68
2021/11/08 00:29:17;;;;;;;;;;;8.60;78.50;;;;;;5028004;28;19913;-68
2021/11/08 00:31:43;;;;;;;;;;;8.60;78.50;;;;;;5008671;28;19914;-68
2021/11/08 00:34:09;;;;;;;;;;;8.60;78.40;;;;;;5007599;28;19940;-68
2021/11/08 00:36:34;;;;;;;;;;;8.60;78.50;;;;;;5009177;28;20273;-68
2021/11/08 00:39:00;;;;;;;;;;;8.60;78.50;;;;;;5013429;28;20039;-66
2021/11/08 00:41:25;;;;;;;;;;;8.60;78.60;;;;;;5010801;28;20919;-67
2021/11/08 00:43:51;;;;;;;;;;;8.50;78.40;;;;;;5010131;28;19928;-68
2021/11/08 00:46:17;;;;;;;;;;;8.60;78.50;;;;;;5007809;28;19929;-67
2021/11/08 00:48:43;;;;;;;;;;;8.60;78.60;;;;;;5007804;28;20467;-67
2021/11/08 00:51:08;;;;;;;;;;;8.60;78.60;;;;;;5006936;28;20380;-67
2021/11/08 00:53:35;;;;;;;;;;;8.60;78.60;;;;;;5012321;28;19922;-68
2021/11/08 00:56:04;;;;;;;;;;;8.60;78.70;;;;;;5009165;28;19936;-67
2021/11/08 00:58:36;;;;;;;;;;;8.60;78.70;;;;;;5008768;28;19941;-69
2021/11/08 01:01:05;;;;;;;;;;;8.60;78.70;;;;;;5007945;28;19928;-68
2021/11/08 01:03:31;;;;;;;;;;;8.60;78.70;;;;;;5007740;28;19918;-68
2021/11/08 01:05:56;;;;;;;;;;;8.60;78.80;;;;;;5008433;28;19917;-68
2021/11/08 01:08:22;;;;;;;;;;;8.60;78.80;;;;;;5011339;28;20020;-68
2021/11/08 01:10:48;;;;;;;;;;;8.60;78.90;;;;;;5006702;28;20420;-68
2021/11/08 01:13:13;;;;;;;;;;;8.60;78.90;;;;;;5010234;28;19924;-68
2021/11/08 01:15:39;;;;;;;;;;;8.60;78.90;;;;;;5009184;28;19921;-67
2021/11/08 01:18:05;;;;;;;;;;;8.60;78.90;;;;;;5010438;28;19963;-68
2021/11/08 01:20:35;;;;;;;;;;;8.60;79.00;;;;;;5007830;28;19913;-67
2021/11/08 01:23:03;;;;;;;;;;;8.60;79.10;;;;;;5007151;28;19976;-68
2021/11/08 01:25:29;;;;;;;;;;;8.60;79.10;;;;;;5012212;28;21606;-68
2021/11/08 01:27:58;;;;;;;;;;;8.60;79.10;;;;;;5009564;28;19921;-68
2021/11/08 01:30:25;;;;;;;;;;;8.60;79.20;;;;;;5007978;28;19922;-68
2021/11/08 01:33:15;;;;;;;;;;;8.50;79.10;;;;;;5011687;28;20704;-68
2021/11/08 01:38:11;;;;;;;;;;;8.50;79.10;;;;;;5008120;28;20256;-68
2021/11/08 01:40:37;;;;;;;;;;;8.50;79.10;;;;;;5011463;28;19924;-68
2021/11/08 01:43:04;;;;;;;;;;;8.50;79.20;;;;;;5008785;28;19917;-68
2021/11/08 01:45:30;;;;;;;;;;;8.50;79.30;;;;;;5007289;28;19941;-68
2021/11/08 01:47:56;;;;;;;;;;;8.50;79.20;;;;;;5008528;28;20015;-68
2021/11/08 01:50:23;;;;;;;;;;;8.50;79.30;;;;;;5008374;28;20507;-68
2021/11/08 01:52:49;;;;;;;;;;;8.50;79.30;;;;;;5006235;28;19924;-67
2021/11/08 01:55:15;;;;;;;;;;;8.50;79.30;;;;;;5011758;28;20312;-68
2021/11/08 01:57:42;;;;;;;;;;;8.50;79.30;;;;;;5007419;28;19921;-67
2021/11/08 02:00:08;;;;;;;;;;;8.50;79.40;;;;;;5007372;28;20375;-67
2021/11/08 02:02:34;;;;;;;;;;;8.50;79.50;;;;;;5003773;28;20431;-68
2021/11/08 02:05:00;;;;;;;;;;;8.40;79.40;;;;;;5007101;28;19977;-67
2021/11/08 02:07:25;;;;;;;;;;;8.50;79.60;;;;;;5007172;28;19960;-68
2021/11/08 02:09:51;;;;;;;;;;;8.50;79.70;;;;;;5004971;28;19986;-67
2021/11/08 02:12:17;;;;;;;;;;;8.40;79.80;;;;;;5006986;28;19920;-68
2021/11/08 02:14:43;;;;;;;;;;;8.40;79.80;;;;;;5009580;28;20017;-68
2021/11/08 02:17:08;;;;;;;;;;;8.40;80.10;;;;;;5007335;28;19917;-67
2021/11/08 02:19:34;;;;;;;;;;;8.40;80.40;;;;;;5007967;28;20409;-68
2021/11/08 02:22:02;;;;;;;;;;;8.40;80.30;;;;;;5008217;28;20012;-68
2021/11/08 02:24:28;;;;;;;;;;;8.30;80.40;;;;;;5007314;28;19913;-69
2021/11/08 02:26:54;;;;;;;;;;;8.30;80.60;;;;;;5011487;28;19920;-68
2021/11/08 02:29:20;;;;;;;;;;;8.30;80.60;;;;;;5008405;28;19924;-67
2021/11/08 02:31:46;;;;;;;;;;;8.30;81.50;;;;;;5008014;28;20368;-68
2021/11/08 02:34:12;;;;;;;;;;;8.30;80.60;;;;;;5007026;28;19927;-67
2021/11/08 02:36:42;;;;;;;;;;;8.30;80.60;;;;;;5009696;28;19935;-68
2021/11/08 02:39:14;;;;;;;;;;;8.30;80.60;;;;;;5014521;28;19913;-67
2021/11/08 02:41:40;;;;;;;;;;;8.40;80.60;;;;;;5011511;28;20004;-68
2021/11/08 02:44:06;;;;;;;;;;;8.40;80.80;;;;;;5007939;28;20012;-68
2021/11/08 02:46:37;;;;;;;;;;;8.40;80.70;;;;;;5007377;28;19917;-68
2021/11/08 02:49:05;;;;;;;;;;;8.40;80.60;;;;;;5008198;28;19913;-67
2021/11/08 02:51:31;;;;;;;;;;;8.40;80.50;;;;;;5007497;28;20012;-67
2021/11/08 02:54:14;;;;;;;;;;;8.40;80.40;;;;;;5004675;28;20060;-67
2021/11/08 02:56:40;;;;;;;;;;;8.50;80.30;;;;;;5008009;28;19927;-67
2021/11/08 02:59:05;;;;;;;;;;;8.50;80.30;;;;;;5006846;28;19917;-67
2021/11/08 03:01:32;;;;;;;;;;;8.50;80.10;;;;;;5007338;28;20004;-68
2021/11/08 03:04:00;;;;;;;;;;;8.50;80.10;;;;;;5008120;28;19921;-67
2021/11/08 03:06:30;;;;;;;;;;;8.50;80.00;;;;;;5003771;28;19917;-68
2021/11/08 03:08:57;;;;;;;;;;;8.50;80.00;;;;;;5005854;28;20052;-68
2021/11/08 03:11:23;;;;;;;;;;;8.50;79.80;;;;;;5005937;28;19917;-67
2021/11/08 03:14:03;;;;;;;;;;;8.50;79.70;;;;;;5006977;28;20376;-67
2021/11/08 03:16:55;;;;;;;;;;;8.50;79.70;;;;;;5006693;28;20026;-68
2021/11/08 03:21:41;;;;;;;;;;;8.40;79.60;;;;;;5007078;28;19918;-67
2021/11/08 03:24:07;;;;;;;;;;;8.40;79.60;;;;;;5006734;28;19921;-67
2021/11/08 03:29:01;;;;;;;;;;;8.50;79.70;;;;;;5007582;28;19913;-67
2021/11/08 03:31:28;;;;;;;;;;;8.40;79.60;;;;;;5005576;28;20910;-67
2021/11/08 03:33:54;;;;;;;;;;;8.40;79.60;;;;;;5007673;28;19948;-67
2021/11/08 03:36:20;;;;;;;;;;;8.40;79.60;;;;;;5005482;28;20463;-67
2021/11/08 03:38:45;;;;;;;;;;;8.40;79.60;;;;;;5005033;28;20372;-68
2021/11/08 03:41:11;;;;;;;;;;;8.40;79.60;;;;;;5005091;28;20291;-67
2021/11/08 03:43:37;;;;;;;;;;;8.40;80.50;;;;;;5013015;28;19921;-68
2021/11/08 03:46:03;;;;;;;;;;;8.40;79.60;;;;;;5009153;28;19917;-67
2021/11/08 03:48:29;;;;;;;;;;;8.40;79.60;;;;;;5006492;28;19922;-68
2021/11/08 03:50:55;;;;;;;;;;;8.40;79.60;;;;;;5005386;28;19925;-68
2021/11/08 03:53:21;;;;;;;;;;;8.40;79.60;;;;;;5006569;28;19923;-68
2021/11/08 03:55:47;;;;;;;;;;;8.40;79.40;;;;;;5005701;28;19913;-67
2021/11/08 03:58:13;;;;;;;;;;;8.40;79.30;;;;;;5010050;28;19960;-68
2021/11/08 04:00:40;;;;;;;;;;;8.30;79.10;;;;;;5005948;28;19959;-67
2021/11/08 04:03:07;;;;;;;;;;;8.30;79.00;;;;;;5010894;28;20867;-67
2021/11/08 04:05:34;;;;;;;;;;;8.20;78.70;;;;;;5006610;28;19913;-68
2021/11/08 04:08:03;;;;;;;;;;;8.10;78.70;;;;;;5009244;28;19921;-68
2021/11/08 04:10:29;;;;;;;;;;;8.10;78.70;;;;;;5006645;28;20292;-68
2021/11/08 04:12:56;;;;;;;;;;;8.00;78.70;;;;;;5012072;28;19921;-68
2021/11/08 04:15:28;;;;;;;;;;;7.90;78.60;;;;;;5010331;28;20008;-67
2021/11/08 04:17:54;;;;;;;;;;;7.90;78.60;;;;;;5010621;28;20463;-67
2021/11/08 04:20:22;;;;;;;;;;;7.80;78.60;;;;;;5010221;28;20035;-67
2021/11/08 04:22:50;;;;;;;;;;;7.70;78.40;;;;;;5008848;28;19928;-67
2021/11/08 04:25:15;;;;;;;;;;;7.70;78.40;;;;;;5009945;28;19921;-68
2021/11/08 04:27:45;;;;;;;;;;;7.60;78.40;;;;;;5010956;28;19925;-68
2021/11/08 04:30:11;;;;;;;;;;;7.50;78.30;;;;;;5010767;28;19984;-67
2021/11/08 04:32:49;;;;;;;;;;;7.50;78.40;;;;;;4998049;28;20346;-67
2021/11/08 04:35:19;;;;;;;;;;;7.40;78.30;;;;;;5009749;28;19913;-67
2021/11/08 04:48:02;;;;;;;;;;;7.20;78.40;;;;;;5011532;28;20416;-67
2021/11/08 04:51:15;;;;;;;;;;;7.20;78.40;;;;;;5011128;28;19933;-67
2021/11/08 05:31:00;;;;;;;;;;;6.80;79.90;;;;;;5012676;28;19921;-67
2021/11/08 05:33:26;;;;;;;;;;;6.80;80.00;;;;;;5011425;28;19940;-68
2021/11/08 05:35:51;;;;;;;;;;;6.70;79.90;;;;;;5015879;28;19968;-67
2021/11/08 05:38:17;;;;;;;;;;;6.70;80.00;;;;;;5016484;28;19914;-68
2021/11/08 05:40:42;;;;;;;;;;;6.70;80.00;;;;;;5014108;28;19941;-67
2021/11/08 05:43:08;;;;;;;;;;;6.70;80.10;;;;;;5028104;28;20532;-66
2021/11/08 05:45:34;;;;;;;;;;;6.70;80.10;;;;;;5015883;28;19913;-67
2021/11/08 05:48:01;;;;;;;;;;;6.60;80.40;;;;;;5017190;28;19917;-67
2021/11/08 05:50:28;;;;;;;;;;;6.60;80.60;;;;;;5015660;28;20020;-67
2021/11/08 05:52:54;;;;;;;;;;;6.60;80.60;;;;;;5014733;28;20365;-67
2021/11/08 05:55:20;;;;;;;;;;;6.50;80.70;;;;;;5023040;28;19960;-67
2021/11/08 06:50:00;;;;;;;;;;;6.20;80.40;;;;;;5017293;28;19919;-66
2021/11/08 06:52:27;;;;;;;;;;;6.20;80.40;;;;;;5015071;28;20375;-67
2021/11/08 06:54:53;;;;;;;;;;;6.20;80.40;;;;;;5015019;28;19913;-68
2021/11/08 06:57:19;;;;;;;;;;;6.20;80.40;;;;;;5015055;28;20342;-67
2021/11/08 06:59:46;;;;;;;;;;;6.20;80.40;;;;;;5015545;28;19917;-67
2021/11/08 07:02:12;;;;;;;;;;;6.20;80.30;;;;;;5015142;28;19945;-67
2021/11/08 07:04:38;;;;;;;;;;;6.20;80.20;;;;;;5014634;28;19992;-66
2021/11/08 07:07:06;;;;;;;;;;;6.20;80.30;;;;;;5014323;28;19960;-67
2021/11/08 07:09:32;;;;;;;;;;;6.20;80.30;;;;;;5016364;28;20020;-67
2021/11/08 07:11:57;;;;;;;;;;;6.20;80.40;;;;;;5010339;28;19917;-67
2021/11/08 07:14:23;;;;;;;;;;;6.30;80.60;;;;;;5016599;28;19932;-67
2021/11/08 07:16:48;;;;;;;;;;;6.30;80.60;;;;;;5015714;28;19924;-67
2021/11/08 07:19:15;;;;;;;;;;;6.30;80.60;;;;;;5016014;28;19913;-67
2021/11/08 07:21:40;;;;;;;;;;;6.30;80.60;;;;;;5015256;28;19929;-66
2021/11/08 07:24:06;;;;;;;;;;;6.30;80.70;;;;;;5016159;28;19913;-67
2021/11/08 07:26:32;;;;;;;;;;;6.30;80.80;;;;;;5014654;28;20462;-67
2021/11/08 07:28:57;;;;;;;;;;;6.40;80.80;;;;;;5013768;28;20592;-67
2021/11/08 07:31:23;;;;;;;;;;;6.40;80.70;;;;;;5017548;28;19913;-67
2021/11/08 07:33:48;;;;;;;;;;;6.40;80.70;;;;;;5016954;28;19917;-68
2021/11/08 07:36:15;;;;;;;;;;;6.40;80.70;;;;;;5014948;28;19913;-67
2021/11/08 07:38:41;;;;;;;;;;;6.40;80.80;;;;;;5015174;28;19925;-67
2021/11/08 07:41:07;;;;;;;;;;;6.50;80.90;;;;;;5016142;28;19913;-67
2021/11/08 07:43:33;;;;;;;;;;;6.50;80.90;;;;;;5017789;28;19917;-68
2021/11/08 07:45:59;;;;;;;;;;;6.50;81.10;;;;;;5017531;28;19967;-67
2021/11/08 07:48:24;;;;;;;;;;;6.50;80.90;;;;;;5018906;28;19913;-68
2021/11/08 07:50:50;;;;;;;;;;;6.50;80.90;;;;;;5018494;28;19925;-67
2021/11/08 07:53:17;;;;;;;;;;;6.50;80.80;;;;;;5020648;28;20002;-67
2021/11/08 07:55:43;;;;;;;;;;;6.50;80.80;;;;;;5019064;28;20383;-67
2021/11/08 07:58:08;;;;;;;;;;;6.60;80.90;;;;;;5018713;28;19945;-66
2021/11/08 08:00:35;;;;;;;;;;;6.60;80.90;;;;;;5014530;28;19982;-67
2021/11/08 08:03:01;;;;;;;;;;;6.60;80.90;;;;;;5016963;28;19928;-67
2021/11/08 08:05:26;;;;;;;;;;;6.60;80.90;;;;;;5015694;28;19913;-67
2021/11/08 08:07:52;;;;;;;;;;;6.60;80.90;;;;;;5015018;28;19920;-68
2021/11/08 08:10:17;;;;;;;;;;;6.70;81.00;;;;;;5017266;28;19920;-68
2021/11/08 08:12:43;;;;;;;;;;;6.60;81.00;;;;;;5015330;28;20513;-67
2021/11/08 08:15:08;;;;;;;;;;;6.70;81.10;;;;;;5016833;28;19931;-67
2021/11/08 08:17:37;;;;;;;;;;;6.80;81.10;;;;;;5019146;28;19917;-68
2021/11/08 08:20:05;;;;;;;;;;;6.80;81.20;;;;;;5020401;28;20060;-67
2021/11/08 08:22:31;;;;;;;;;;;6.80;81.20;;;;;;5017962;28;20007;-67
2021/11/08 08:24:56;;;;;;;;;;;6.90;81.30;;;;;;5018770;28;20448;-67
2021/11/08 08:27:22;;;;;;;;;;;6.90;81.40;;;;;;5019215;28;19924;-67
2021/11/08 08:29:48;;;;;;;;;;;6.90;81.30;;;;;;5018484;28;20229;-67
2021/11/08 08:32:14;;;;;;;;;;;6.90;81.30;;;;;;5019620;28;19923;-67
2021/11/08 08:34:39;;;;;;;;;;;6.90;81.40;;;;;;5018198;28;20300;-67
2021/11/08 08:37:05;;;;;;;;;;;6.90;81.30;;;;;;5017533;28;19917;-68
2021/11/08 08:39:30;;;;;;;;;;;6.80;81.20;;;;;;5019205;28;19925;-67
2021/11/08 08:41:56;;;;;;;;;;;6.90;81.20;;;;;;5018241;28;19921;-68
2021/11/08 08:44:21;;;;;;;;;;;6.90;81.30;;;;;;5017740;28;19921;-68
2021/11/08 08:46:47;;;;;;;;;;;6.90;81.30;;;;;;5018819;28;19970;-67
2021/11/08 08:49:14;;;;;;;;;;;6.90;81.30;;;;;;5018940;28;19913;-68
2021/11/08 08:51:41;;;;;;;;;;;6.90;81.30;;;;;;5018384;28;20418;-68
2021/11/08 08:54:07;;;;;;;;;;;7.00;81.40;;;;;;5017737;28;19936;-67
2021/11/08 08:56:33;;;;;;;;;;;7.00;81.40;;;;;;5022471;28;19921;-67
2021/11/08 08:58:58;;;;;;;;;;;7.10;81.50;;;;;;5019442;28;19918;-67
2021/11/08 09:01:25;;;;;;;;;;;7.10;81.50;;;;;;5014533;28;19921;-67
2021/11/08 09:03:51;;;;;;;;;;;7.10;81.50;;;;;;5013370;28;19923;-67
2021/11/08 09:06:17;;;;;;;;;;;7.20;81.50;;;;;;5015661;28;19921;-67
2021/11/08 09:08:42;;;;;;;;;;;7.20;81.70;;;;;;5017710;28;19928;-67
2021/11/08 09:11:08;;;;;;;;;;;7.30;81.80;;;;;;5010244;28;19917;-67
2021/11/08 09:13:34;;;;;;;;;;;7.30;81.70;;;;;;5019754;28;19924;-67
2021/11/08 09:16:00;;;;;;;;;;;7.40;81.70;;;;;;5017972;28;19921;-67
2021/11/08 09:18:26;;;;;;;;;;;7.40;81.70;;;;;;5017445;28;19924;-67
2021/11/08 09:20:51;;;;;;;;;;;7.50;81.70;;;;;;5018299;28;19913;-68
2021/11/08 09:23:17;;;;;;;;;;;7.50;81.70;;;;;;5017516;28;19932;-67
2021/11/08 09:25:42;;;;;;;;;;;7.60;81.80;;;;;;5017617;28;20018;-67
2021/11/08 09:28:08;;;;;;;;;;;7.70;82.60;;;;;;5016452;28;19917;-67
2021/11/08 09:30:37;;;;;;;;;;;7.70;81.70;;;;;;5013650;28;19921;-68
2021/11/08 09:33:02;;;;;;;;;;;7.80;81.70;;;;;;5008207;28;19918;-67
2021/11/08 09:35:32;;;;;;;;;;;7.90;81.70;;;;;;5017458;28;19914;-68
2021/11/08 09:37:59;;;;;;;;;;;7.90;81.60;;;;;;5015010;28;19925;-67
2021/11/08 09:40:25;;;;;;;;;;;8.00;81.50;;;;;;5017835;28;19916;-68
2021/11/08 09:42:52;;;;;;;;;;;8.10;81.50;;;;;;5017619;28;19924;-67
2021/11/08 09:45:18;;;;;;;;;;;8.10;81.30;;;;;;5019541;28;20340;-66
2021/11/08 09:47:44;;;;;;;;;;;8.20;81.20;;;;;;5019589;28;19917;-68
2021/11/08 09:50:11;;;;;;;;;;;8.20;81.20;;;;;;5018633;28;19924;-68
2021/11/08 09:52:40;;;;;;;;;;;8.30;80.80;;;;;;5013688;28;19916;-68
2021/11/08 09:55:10;;;;;;;;;;;8.30;80.60;;;;;;5017274;28;19913;-68
2021/11/08 09:57:36;;;;;;;;;;;8.30;80.60;;;;;;5015658;28;19917;-67
2021/11/08 10:00:17;;;;;;;;;;;8.40;80.60;;;;;;5014522;28;20293;-68
2021/11/08 10:02:48;;;;;;;;;;;8.40;80.50;;;;;;5015677;28;19967;-68
2021/11/08 10:05:14;;;;;;;;;;;8.40;80.10;;;;;;5013292;28;19968;-67
2021/11/08 10:07:39;;;;;;;;;;;8.50;80.10;;;;;;5013695;28;19956;-68
2021/11/08 10:10:06;;;;;;;;;;;8.50;79.70;;;;;;5014275;28;19913;-67
2021/11/08 10:12:33;;;;;;;;;;;8.50;79.80;;;;;;5012615;28;19916;-68
2021/11/08 10:14:59;;;;;;;;;;;8.60;80.00;;;;;;5017013;28;20003;-68
2021/11/08 10:17:28;;;;;;;;;;;8.60;80.10;;;;;;5017002;28;19929;-67
2021/11/08 10:19:53;;;;;;;;;;;8.70;80.00;;;;;;5017029;28;20281;-68
2021/11/08 10:22:20;;;;;;;;;;;8.70;79.80;;;;;;5015914;28;20003;-68
2021/11/08 10:24:47;;;;;;;;;;;8.80;79.80;;;;;;5016380;28;19917;-68
2021/11/08 10:27:13;;;;;;;;;;;8.80;80.00;;;;;;5013270;28;19952;-68
2021/11/08 10:29:45;;;;;;;;;;;8.90;80.00;;;;;;5016967;28;19956;-67
2021/11/08 10:32:12;;;;;;;;;;;9.00;78.40;;;;;;5016277;28;20169;-68
2021/11/08 10:34:45;;;;;;;;;;;9.00;79.10;;;;;;5016646;28;20000;-68
2021/11/08 10:37:10;;;;;;;;;;;9.10;79.50;;;;;;5015950;28;19917;-68
2021/11/08 10:39:37;;;;;;;;;;;9.10;79.80;;;;;;5015769;28;19924;-67
2021/11/08 10:42:04;;;;;;;;;;;9.20;79.90;;;;;;5016552;28;19914;-68
2021/11/08 10:44:30;;;;;;;;;;;9.30;80.00;;;;;;5011732;28;19921;-68
2021/11/08 10:46:58;;;;;;;;;;;9.30;80.10;;;;;;5015116;28;19923;-67
2021/11/08 10:49:25;;;;;;;;;;;9.40;80.10;;;;;;5010884;28;19928;-68
2021/11/08 10:51:52;;;;;;;;;;;9.50;80.10;;;;;;5014281;28;20338;-68
2021/11/08 10:54:24;;;;;;;;;;;9.60;80.00;;;;;;5014993;28;19984;-66
2021/11/08 10:56:59;;;;;;;;;;;9.70;79.70;;;;;;5014318;28;19917;-68
2021/11/08 10:59:29;;;;;;;;;;;9.70;79.60;;;;;;5015643;28;20385;-69
2021/11/08 11:01:56;;;;;;;;;;;9.80;79.90;;;;;;5015327;28;19995;-68
2021/11/08 11:04:45;;;;;;;;;;;9.90;79.90;;;;;;5016057;28;20536;-68
2021/11/08 11:07:14;;;;;;;;;;;9.90;79.60;;;;;;5016556;28;19924;-68
2021/11/08 11:09:40;;;;;;;;;;;10.00;77.80;;;;;;5014756;28;19987;-68
2021/11/08 11:12:08;;;;;;;;;;;10.00;75.60;;;;;;5012266;28;19916;-68
2021/11/08 11:14:34;;;;;;;;;;;10.00;77.10;;;;;;5018034;28;20435;-68
2021/11/08 11:17:03;;;;;;;;;;;10.10;77.50;;;;;;5018107;28;20376;-68
2021/11/08 11:19:32;;;;;;;;;;;10.10;78.00;;;;;;5018422;28;19913;-68
2021/11/08 11:22:01;;;;;;;;;;;10.20;78.20;;;;;;5018863;28;19913;-68
2021/11/08 11:24:32;;;;;;;;;;;10.20;74.90;;;;;;5018241;28;20051;-68
2021/11/08 11:26:57;;;;;;;;;;;10.30;76.00;;;;;;5016414;28;19920;-68
2021/11/08 11:29:29;;;;;;;;;;;10.30;77.10;;;;;;5018132;28;20466;-68
2021/11/08 11:31:55;;;;;;;;;;;10.30;77.20;;;;;;5015501;28;19943;-66
2021/11/08 11:34:21;;;;;;;;;;;10.40;77.50;;;;;;5015923;28;19991;-68
2021/11/08 11:36:46;;;;;;;;;;;10.40;77.40;;;;;;5017263;28;19913;-68
2021/11/08 11:39:16;;;;;;;;;;;10.50;75.20;;;;;;5018438;28;20408;-68
2021/11/08 11:41:42;;;;;;;;;;;10.50;72.70;;;;;;5017435;28;19920;-68
2021/11/08 11:44:09;;;;;;;;;;;10.50;75.10;;;;;;5012779;28;19932;-68
2021/11/08 11:46:36;;;;;;;;;;;10.50;76.50;;;;;;5015595;28;19914;-68
2021/11/08 11:49:03;;;;;;;;;;;10.60;76.90;;;;;;5016568;28;19913;-68
2021/11/08 11:51:33;;;;;;;;;;;10.60;76.30;;;;;;5014494;28;19921;-68
2021/11/08 11:53:59;;;;;;;;;;;10.60;71.70;;;;;;5013845;28;19927;-68
2021/11/08 11:56:26;;;;;;;;;;;10.70;72.70;;;;;;5015340;28;19940;-68
2021/11/08 11:58:52;;;;;;;;;;;10.70;74.70;;;;;;5016502;28;19956;-69
2021/11/08 12:01:21;;;;;;;;;;;10.60;67.20;;;;;;5015903;28;20437;-68
2021/11/08 12:03:47;;;;;;;;;;;10.60;70.90;;;;;;5015403;28;19917;-68
2021/11/08 12:06:14;;;;;;;;;;;10.70;72.80;;;;;;5015162;28;20308;-69
2021/11/08 12:08:41;;;;;;;;;;;10.60;73.30;;;;;;5030592;28;20324;-69
2021/11/08 12:11:07;;;;;;;;;;;10.60;74.10;;;;;;5012395;28;19913;-69
2021/11/08 12:13:35;;;;;;;;;;;10.70;72.80;;;;;;5014272;28;19927;-69
2021/11/08 12:16:18;;;;;;;;;;;10.70;73.70;;;;;;5016249;28;19917;-69
2021/11/08 12:18:46;;;;;;;;;;;10.70;73.10;;;;;;5015914;28;19968;-68
2021/11/08 12:21:21;;;;;;;;;;;10.60;72.80;;;;;;5013626;28;19917;-69
2021/11/08 12:23:47;;;;;;;;;;;10.60;73.60;;;;;;5017276;28;20292;-69
2021/11/08 12:26:20;;;;;;;;;;;10.60;73.10;;;;;;5017704;28;20008;-68
2021/11/08 12:28:47;;;;;;;;;;;10.60;72.90;;;;;;5017909;28;20418;-69
2021/11/08 12:31:17;;;;;;;;;;;10.60;73.80;;;;;;5021559;28;19964;-69
2021/11/08 12:33:42;;;;;;;;;;;10.50;73.70;;;;;;5017915;28;20387;-69
2021/11/08 12:36:08;;;;;;;;;;;10.50;74.10;;;;;;5014417;28;19922;-68
2021/11/08 12:38:35;;;;;;;;;;;10.50;74.20;;;;;;5018808;28;19917;-69
2021/11/08 12:41:12;;;;;;;;;;;10.50;74.30;;;;;;5016900;28;19917;-69
2021/11/08 12:43:39;;;;;;;;;;;10.50;74.00;;;;;;5019921;28;19917;-69
2021/11/08 12:46:13;;;;;;;;;;;10.50;74.20;;;;;;5018637;28;19913;-69
2021/11/08 12:48:39;;;;;;;;;;;10.50;74.60;;;;;;5016764;28;19917;-68
2021/11/08 12:51:05;;;;;;;;;;;10.50;74.60;;;;;;5018689;28;19928;-69
2021/11/08 12:53:32;;;;;;;;;;;10.50;74.30;;;;;;5019523;28;20398;-68
2021/11/08 12:55:59;;;;;;;;;;;10.50;74.00;;;;;;5019214;28;19917;-68
2021/11/08 12:58:58;;;;;;;;;;;10.60;73.80;;;;;;5016935;28;19917;-70
2021/11/08 13:01:35;;;;;;;;;;;10.60;74.50;;;;;;5011160;28;20017;-69
2021/11/08 13:04:06;;;;;;;;;;;10.60;74.70;;;;;;5019020;28;19917;-68
2021/11/08 13:06:33;;;;;;;;;;;10.60;74.80;;;;;;5017826;28;19917;-69
2021/11/08 13:09:03;;;;;;;;;;;10.60;75.20;;;;;;5018249;28;19913;-68
2021/11/08 13:11:35;;;;;;;;;;;10.60;74.10;;;;;;5011184;28;19913;-68
2021/11/08 13:14:01;;;;;;;;;;;10.60;73.90;;;;;;5019280;28;19928;-69
2021/11/08 13:16:32;;;;;;;;;;;10.60;73.70;;;;;;5017752;28;19920;-68
2021/11/08 13:19:02;;;;;;;;;;;10.60;73.70;;;;;;5018773;28;19987;-68
2021/11/08 13:21:29;;;;;;;;;;;10.60;73.90;;;;;;5019121;28;20369;-68
2021/11/08 13:23:55;;;;;;;;;;;10.60;73.50;;;;;;5018357;28;19913;-68
2021/11/08 13:26:20;;;;;;;;;;;10.60;72.80;;;;;;5017327;28;19935;-68
2021/11/08 13:28:46;;;;;;;;;;;10.60;71.40;;;;;;5018975;28;19913;-68
2021/11/08 13:31:12;;;;;;;;;;;10.60;72.60;;;;;;5018892;28;19917;-67
2021/11/08 13:33:47;;;;;;;;;;;10.60;73.60;;;;;;5019235;28;19959;-68
2021/11/08 13:36:14;;;;;;;;;;;10.60;73.70;;;;;;5019072;28;19924;-68
2021/11/08 13:38:41;;;;;;;;;;;10.60;73.70;;;;;;5016726;28;20016;-68
2021/11/08 13:41:17;;;;;;;;;;;10.70;72.70;;;;;;5014999;28;19917;-68
2021/11/08 13:43:44;;;;;;;;;;;10.70;73.40;;;;;;5017847;28;19917;-68
2021/11/08 13:46:12;;;;;;;;;;;10.70;73.40;;;;;;5018156;28;19916;-66
2021/11/08 13:48:51;;;;;;;;;;;10.80;74.00;;;;;;5017639;28;20276;-68
2021/11/08 13:51:25;;;;;;;;;;;10.70;74.30;;;;;;5018809;28;19921;-68
2021/11/08 13:53:56;;;;;;;;;;;10.80;74.30;;;;;;5018933;28;19926;-68
2021/11/08 13:56:22;;;;;;;;;;;10.70;74.20;;;;;;5016255;28;19944;-67
2021/11/08 13:58:52;;;;;;;;;;;10.80;74.30;;;;;;5016356;28;19972;-68
2021/11/08 14:01:18;;;;;;;;;;;10.80;74.00;;;;;;5015973;28;19913;-68
2021/11/08 14:03:45;;;;;;;;;;;10.80;73.80;;;;;;5017264;28;19923;-68
2021/11/08 14:06:14;;;;;;;;;;;10.80;73.80;;;;;;5016391;28;19996;-68
2021/11/08 14:08:45;;;;;;;;;;;10.70;73.50;;;;;;5017117;28;20352;-69
2021/11/08 14:11:11;;;;;;;;;;;10.70;73.30;;;;;;5011284;28;19917;-68
2021/11/08 14:13:38;;;;;;;;;;;10.70;73.20;;;;;;5017945;28;19924;-68
2021/11/08 14:16:12;;;;;;;;;;;10.70;72.50;;;;;;5017795;28;20369;-69
2021/11/08 14:18:38;;;;;;;;;;;10.70;72.80;;;;;;5018128;28;19913;-68
2021/11/08 14:21:05;;;;;;;;;;;10.60;72.50;;;;;;5018176;28;19935;-68
2021/11/08 14:23:30;;;;;;;;;;;10.60;72.90;;;;;;5017403;28;20428;-68
2021/11/08 14:26:05;;;;;;;;;;;10.60;72.80;;;;;;5017387;28;19952;-68
2021/11/08 14:28:31;;;;;;;;;;;10.50;73.00;;;;;;5016902;28;19917;-68
2021/11/08 14:30:56;;;;;;;;;;;10.60;73.20;;;;;;5017734;28;19947;-68
2021/11/08 14:33:22;;;;;;;;;;;10.60;74.40;;;;;;5018133;28;19960;-68
2021/11/08 14:35:47;;;;;;;;;;;10.60;73.80;;;;;;5017519;28;19921;-67
2021/11/08 14:38:28;;;;;;;;;;;10.60;73.90;;;;;;5017908;28;20575;-68
2021/11/08 14:40:56;;;;;;;;;;;10.60;74.00;;;;;;5017037;28;19913;-68
2021/11/08 14:43:23;;;;;;;;;;;10.60;73.80;;;;;;5015645;28;19953;-68
2021/11/08 14:45:59;;;;;;;;;;;10.70;73.70;;;;;;5016899;28;19925;-68
2021/11/08 14:48:25;;;;;;;;;;;10.70;73.20;;;;;;5014158;28;19929;-69
2021/11/08 14:51:02;;;;;;;;;;;10.70;72.80;;;;;;5017106;28;19937;-67
2021/11/08 14:53:29;;;;;;;;;;;10.70;72.80;;;;;;5014279;28;20458;-68
2021/11/08 14:55:54;;;;;;;;;;;10.70;73.10;;;;;;5013546;28;19949;-68
2021/11/08 14:58:20;;;;;;;;;;;10.70;73.00;;;;;;5018737;28;20005;-68
2021/11/08 15:00:47;;;;;;;;;;;10.70;72.80;;;;;;5016438;28;20376;-68
2021/11/08 15:03:17;;;;;;;;;;;10.70;72.80;;;;;;5013893;28;20329;-68
2021/11/08 15:05:44;;;;;;;;;;;10.60;73.20;;;;;;5015577;28;19977;-69
2021/11/08 15:08:14;;;;;;;;;;;10.70;73.20;;;;;;5015511;28;19913;-69
2021/11/08 15:10:41;;;;;;;;;;;10.70;73.40;;;;;;5012666;28;19913;-68
2021/11/08 15:13:08;;;;;;;;;;;10.70;73.20;;;;;;5016171;28;19917;-68
2021/11/08 15:15:36;;;;;;;;;;;10.70;73.20;;;;;;5014894;28;20071;-68
2021/11/08 15:18:13;;;;;;;;;;;10.70;72.90;;;;;;5013994;28;19959;-67
2021/11/08 15:20:43;;;;;;;;;;;10.60;72.80;;;;;;5017333;28;20053;-68
2021/11/08 15:23:11;;;;;;;;;;;10.60;72.70;;;;;;5016823;28;19921;-68
2021/11/08 15:25:43;;;;;;;;;;;10.60;72.80;;;;;;5016318;28;19916;-69
2021/11/08 15:28:10;;;;;;;;;;;10.60;72.60;;;;;;5010233;28;19922;-68
2021/11/08 15:30:38;;;;;;;;;;;10.60;73.00;;;;;;5008450;28;19921;-68
2021/11/08 15:33:08;;;;;;;;;;;10.60;72.10;;;;;;5004713;28;19926;-67
2021/11/08 15:35:43;;;;;;;;;;;10.50;70.90;;;;;;5020502;28;20415;-68
2021/11/08 15:38:09;;;;;;;;;;;10.40;71.40;;;;;;5014555;28;19913;-69
2021/11/08 15:40:35;;;;;;;;;;;10.40;72.10;;;;;;5013432;28;20496;-67
2021/11/08 15:43:03;;;;;;;;;;;10.30;72.20;;;;;;5006495;28;19952;-68
2021/11/08 15:45:29;;;;;;;;;;;10.30;72.40;;;;;;5009267;28;19939;-68
2021/11/08 15:47:57;;;;;;;;;;;10.30;72.60;;;;;;5015068;28;20304;-69
2021/11/08 15:50:23;;;;;;;;;;;10.20;72.70;;;;;;5013512;28;20319;-69
2021/11/08 15:52:49;;;;;;;;;;;10.10;72.70;;;;;;5013134;28;19948;-68
2021/11/08 15:55:14;;;;;;;;;;;10.10;72.60;;;;;;5013950;28;19968;-68
2021/11/08 15:57:40;;;;;;;;;;;10.00;72.50;;;;;;5006005;28;19928;-68
2021/11/08 16:00:06;;;;;;;;;;;10.00;72.50;;;;;;5009663;28;19960;-68
2021/11/08 16:02:36;;;;;;;;;;;9.90;72.40;;;;;;5006217;28;19988;-68
2021/11/08 16:05:03;;;;;;;;;;;9.90;72.30;;;;;;5008548;28;20817;-67
2021/11/08 16:07:29;;;;;;;;;;;9.80;73.20;;;;;;5006721;28;20020;-68
2021/11/08 16:09:55;;;;;;;;;;;9.70;72.30;;;;;;5004140;28;20037;-68
2021/11/08 16:12:20;;;;;;;;;;;9.70;72.30;;;;;;5005285;28;19921;-68
2021/11/08 16:14:46;;;;;;;;;;;9.60;72.10;;;;;;5013811;28;19924;-68
2021/11/08 16:17:11;;;;;;;;;;;9.60;72.10;;;;;;5016998;28;19917;-69
2021/11/08 16:19:37;;;;;;;;;;;9.50;72.10;;;;;;5019378;28;19936;-68